Time;durP1;ratioP1;P1;durP2;ratioP2;P2;SDS_P1;SDS_P2;PMS_P1;PMS_P2;Temp;Humidity;BMP_temperature;BMP_pressure;BME280_temperature;BME280_humidity;BME280_pressure;Samples;Min_cycle;Max_cycle;Signal;HPM_P1;HPM_P2
2022/09/27 00:00:36;;;;;;;5.25;1.33;;;11.70;99.90;;;;;;5036463;28;20120;-56
2022/09/27 00:03:03;;;;;;;4.65;1.33;;;11.60;99.90;;;;;;5035801;28;20120;-55
2022/09/27 00:05:30;;;;;;;7.38;1.40;;;11.60;99.90;;;;;;5035713;28;20045;-56
2022/09/27 00:07:57;;;;;;;7.63;1.55;;;11.60;99.90;;;;;;5035916;28;20068;-58
2022/09/27 00:10:24;;;;;;;9.07;1.65;;;11.60;99.90;;;;;;5036441;28;20129;-55
2022/09/27 00:12:51;;;;;;;8.80;1.50;;;11.60;99.90;;;;;;5036952;28;20048;-56
2022/09/27 00:15:17;;;;;;;4.60;1.17;;;11.60;99.90;;;;;;5036584;28;20064;-53
2022/09/27 00:17:44;;;;;;;6.85;1.35;;;11.60;99.90;;;;;;5036383;28;20487;-57
2022/09/27 00:20:11;;;;;;;6.97;1.55;;;11.60;99.90;;;;;;5035422;28;20117;-55
2022/09/27 00:22:37;;;;;;;5.75;1.20;;;11.50;99.90;;;;;;5036014;28;20124;-56
2022/09/27 00:25:06;;;;;;;4.85;1.10;;;11.50;99.90;;;;;;5035171;28;20493;-53
2022/09/27 00:27:32;;;;;;;5.72;1.40;;;11.50;99.90;;;;;;5036707;28;20053;-55
2022/09/27 00:29:59;;;;;;;3.63;1.25;;;11.60;99.90;;;;;;5036030;28;20096;-54
2022/09/27 00:32:26;;;;;;;6.57;1.35;;;11.60;99.90;;;;;;5035535;28;20045;-54
2022/09/27 00:34:53;;;;;;;6.35;1.45;;;11.60;99.90;;;;;;5034344;28;20069;-55
2022/09/27 00:37:20;;;;;;;6.28;1.60;;;11.60;99.90;;;;;;5035150;28;20088;-55
2022/09/27 00:39:46;;;;;;;6.10;1.00;;;11.50;99.90;;;;;;5036034;28;20049;-57
2022/09/27 00:42:13;;;;;;;5.60;1.02;;;11.50;99.90;;;;;;5033740;28;20092;-57
2022/09/27 00:44:40;;;;;;;5.63;1.20;;;11.50;99.90;;;;;;5034483;28;20056;-54
2022/09/27 00:47:06;;;;;;;5.35;0.98;;;11.50;99.90;;;;;;5036023;28;20112;-55
2022/09/27 00:49:34;;;;;;;8.27;1.67;;;11.50;99.90;;;;;;5035598;28;20061;-55
2022/09/27 00:52:01;;;;;;;10.50;1.65;;;11.50;99.90;;;;;;5035852;28;20133;-55
2022/09/27 00:54:27;;;;;;;7.72;1.40;;;11.50;99.90;;;;;;5034565;28;20107;-53
2022/09/27 00:56:54;;;;;;;5.60;1.30;;;11.50;99.90;;;;;;5034318;28;20107;-54
2022/09/27 00:59:21;;;;;;;10.60;1.67;;;11.50;99.90;;;;;;5034789;28;20076;-58
2022/09/27 01:01:48;;;;;;;7.82;1.25;;;11.50;99.90;;;;;;5033638;28;20041;-54
2022/09/27 01:04:15;;;;;;;8.95;1.92;;;11.50;99.90;;;;;;5034061;28;20038;-54
2022/09/27 01:06:42;;;;;;;5.50;1.20;;;11.50;99.90;;;;;;5034968;28;20507;-53
2022/09/27 01:09:09;;;;;;;8.50;1.60;;;11.50;99.90;;;;;;5034053;28;20084;-56
2022/09/27 01:11:35;;;;;;;7.93;1.35;;;11.50;99.90;;;;;;5035563;28;20045;-55
2022/09/27 01:14:02;;;;;;;6.50;1.50;;;11.50;99.90;;;;;;5035570;28;20038;-55
2022/09/27 01:16:29;;;;;;;6.00;1.27;;;11.50;99.90;;;;;;5033348;28;20523;-58
2022/09/27 01:18:56;;;;;;;7.85;1.27;;;11.50;99.90;;;;;;5035647;28;20042;-54
2022/09/27 01:21:22;;;;;;;5.65;1.48;;;11.50;99.90;;;;;;5032871;28;20048;-54
2022/09/27 01:23:49;;;;;;;5.55;1.48;;;11.50;99.90;;;;;;5035025;28;20404;-54
2022/09/27 01:26:17;;;;;;;5.45;1.30;;;11.50;99.90;;;;;;5034388;28;20048;-54
2022/09/27 01:28:43;;;;;;;10.30;1.83;;;11.50;99.90;;;;;;5034322;28;20038;-50
2022/09/27 01:31:10;;;;;;;8.68;1.30;;;11.50;99.90;;;;;;5014115;28;20073;-54
2022/09/27 01:33:37;;;;;;;7.50;1.42;;;11.50;99.90;;;;;;5026157;28;20136;-51
2022/09/27 01:36:04;;;;;;;8.25;1.63;;;11.50;99.90;;;;;;5032746;28;20171;-56
2022/09/27 01:38:31;;;;;;;7.18;1.35;;;11.40;99.90;;;;;;5034183;28;20041;-56
2022/09/27 01:40:59;;;;;;;6.72;1.63;;;11.40;99.90;;;;;;5033625;28;20080;-56
2022/09/27 01:43:26;;;;;;;8.43;1.50;;;11.50;99.90;;;;;;5034825;28;20041;-58
2022/09/27 01:45:53;;;;;;;5.05;1.10;;;11.40;99.90;;;;;;5032924;28;20069;-57
2022/09/27 01:48:38;;;;;;;6.93;1.63;;;11.50;99.90;;;;;;5034003;28;20041;-55
2022/09/27 01:51:13;;;;;;;6.55;1.33;;;11.40;99.90;;;;;;5033263;28;20282;-53
2022/09/27 01:53:41;;;;;;;9.73;1.88;;;11.50;99.90;;;;;;5033210;28;20455;-52
2022/09/27 01:56:37;;;;;;;6.05;1.73;;;11.50;99.90;;;;;;5032952;28;20045;-54
2022/09/27 01:59:08;;;;;;;6.57;1.45;;;11.40;99.90;;;;;;5032052;28;20049;-55
2022/09/27 02:01:41;;;;;;;7.75;1.67;;;11.50;99.90;;;;;;5031794;28;20484;-57
2022/09/27 02:04:08;;;;;;;5.53;1.30;;;11.40;99.90;;;;;;5033208;28;20053;-57
2022/09/27 02:06:53;;;;;;;8.83;1.60;;;11.40;99.90;;;;;;5034253;28;20060;-57
2022/09/27 02:09:23;;;;;;;9.00;1.38;;;11.40;99.90;;;;;;5033190;28;20333;-55
2022/09/27 02:11:56;;;;;;;5.20;1.20;;;11.30;99.90;;;;;;5031772;28;20412;-55
2022/09/27 02:14:24;;;;;;;7.10;1.60;;;11.20;99.90;;;;;;5032067;28;20092;-53
2022/09/27 02:16:55;;;;;;;8.60;1.30;;;11.20;99.90;;;;;;5031321;28;20072;-55
2022/09/27 02:19:26;;;;;;;6.35;1.20;;;11.10;99.90;;;;;;5034171;28;20133;-53
2022/09/27 02:21:53;;;;;;;8.18;1.27;;;11.10;99.90;;;;;;5033237;28;20148;-55
2022/09/27 02:24:20;;;;;;;5.15;1.23;;;11.00;99.90;;;;;;5033865;28;20465;-54
2022/09/27 02:26:49;;;;;;;5.38;1.13;;;11.00;99.90;;;;;;5032477;28;21036;-54
2022/09/27 02:29:15;;;;;;;5.85;1.45;;;11.00;99.90;;;;;;5032754;28;20476;-54
2022/09/27 02:31:50;;;;;;;5.35;1.17;;;11.00;99.90;;;;;;5031930;28;20053;-54
2022/09/27 02:34:17;;;;;;;6.38;1.30;;;11.00;99.90;;;;;;5031993;28;20041;-53
2022/09/27 02:36:44;;;;;;;5.72;1.20;;;11.00;99.90;;;;;;5031219;28;20099;-55
2022/09/27 02:39:11;;;;;;;8.00;1.30;;;10.90;99.90;;;;;;5032517;28;20049;-56
2022/09/27 02:41:38;;;;;;;6.90;1.20;;;10.90;99.90;;;;;;5032388;28;20524;-55
2022/09/27 02:44:05;;;;;;;6.47;1.30;;;10.90;99.90;;;;;;5031287;28;20061;-54
2022/09/27 02:46:31;;;;;;;4.22;1.10;;;11.00;99.90;;;;;;5034082;28;20523;-53
2022/09/27 02:48:58;;;;;;;8.77;1.30;;;10.90;99.90;;;;;;5032942;28;20065;-55
2022/09/27 02:51:25;;;;;;;6.03;1.38;;;11.00;99.90;;;;;;5032417;28;20555;-56
2022/09/27 02:53:52;;;;;;;5.60;1.35;;;11.00;99.90;;;;;;5031379;28;20037;-54
2022/09/27 02:56:37;;;;;;;5.15;1.10;;;11.00;99.90;;;;;;5032530;28;20068;-54
2022/09/27 02:59:36;;;;;;;8.90;1.45;;;10.90;99.90;;;;;;5029670;28;20128;-57
2022/09/27 03:02:26;;;;;;;6.55;1.67;;;10.90;99.90;;;;;;5029541;28;20042;-51
2022/09/27 03:05:13;;;;;;;6.03;1.20;;;10.90;99.90;;;;;;5031952;28;20041;-57
2022/09/27 03:07:40;;;;;;;6.00;1.35;;;10.80;99.90;;;;;;5032327;28;20100;-53
2022/09/27 03:10:07;;;;;;;7.50;1.45;;;10.80;99.90;;;;;;5034018;28;20441;-55
2022/09/27 03:12:33;;;;;;;5.00;1.20;;;10.80;99.90;;;;;;5030927;28;20455;-55
2022/09/27 03:15:00;;;;;;;5.70;1.45;;;10.70;99.90;;;;;;5030964;28;20136;-52
2022/09/27 03:17:45;;;;;;;8.77;1.40;;;10.60;99.90;;;;;;5033013;28;20516;-50
2022/09/27 03:20:50;;;;;;;7.93;1.98;;;10.60;99.90;;;;;;5030256;28;20054;-54
2022/09/27 03:23:18;;;;;;;10.43;1.27;;;10.50;99.90;;;;;;5010626;28;20037;-53
2022/09/27 03:25:45;;;;;;;8.55;1.98;;;10.40;99.90;;;;;;5017992;28;20050;-54
2022/09/27 03:28:12;;;;;;;6.57;1.33;;;10.40;99.90;;;;;;5012616;28;20046;-53
2022/09/27 03:30:43;;;;;;;6.28;0.90;;;10.30;99.90;;;;;;5026960;28;20436;-54
2022/09/27 03:33:12;;;;;;;11.07;1.77;;;10.30;99.90;;;;;;5036595;28;20049;-51
2022/09/27 03:35:59;;;;;;;8.95;1.70;;;10.20;99.90;;;;;;5036058;28;20045;-52
2022/09/27 03:38:25;;;;;;;6.88;1.38;;;10.20;99.90;;;;;;5035874;28;20049;-52
2022/09/27 03:40:52;;;;;;;8.30;1.50;;;10.20;99.90;;;;;;5034921;28;20427;-53
2022/09/27 03:43:19;;;;;;;9.07;1.90;;;10.20;99.90;;;;;;5035726;28;20477;-53
2022/09/27 03:45:46;;;;;;;6.40;1.10;;;10.20;99.90;;;;;;5033525;28;20043;-52
2022/09/27 03:48:13;;;;;;;10.90;1.73;;;10.10;99.90;;;;;;5034805;28;20037;-52
2022/09/27 03:50:40;;;;;;;7.50;1.27;;;10.10;99.90;;;;;;5034626;28;20080;-53
2022/09/27 03:53:07;;;;;;;7.70;1.58;;;10.10;99.90;;;;;;5034447;28;21153;-52
2022/09/27 03:55:34;;;;;;;6.22;1.30;;;10.10;99.90;;;;;;5036097;28;20503;-57
2022/09/27 03:58:01;;;;;;;9.65;1.60;;;10.00;99.90;;;;;;5034362;28;20511;-57
2022/09/27 04:00:27;;;;;;;5.93;1.38;;;10.00;99.90;;;;;;5035078;28;20417;-57
2022/09/27 04:02:54;;;;;;;8.55;1.70;;;10.00;99.90;;;;;;5033737;28;20069;-56
2022/09/27 04:05:22;;;;;;;4.63;1.27;;;9.90;99.90;;;;;;5034378;28;20420;-57
2022/09/27 04:07:52;;;;;;;6.53;1.40;;;9.90;99.90;;;;;;5032606;28;20080;-58
2022/09/27 04:10:20;;;;;;;8.15;1.60;;;9.80;99.90;;;;;;5035930;28;20057;-57
2022/09/27 04:12:48;;;;;;;8.43;1.42;;;9.80;99.90;;;;;;5035340;28;20049;-57
2022/09/27 04:15:16;;;;;;;10.70;1.67;;;9.80;99.90;;;;;;5033958;28;20048;-56
2022/09/27 04:17:49;;;;;;;9.38;1.90;;;9.70;99.90;;;;;;5035789;28;20045;-58
2022/09/27 04:20:33;;;;;;;10.13;1.65;;;9.70;99.90;;;;;;5036406;28;20058;-56
2022/09/27 04:23:06;;;;;;;9.25;1.60;;;9.70;99.90;;;;;;5033494;28;20099;-56
2022/09/27 04:25:36;;;;;;;8.95;1.60;;;9.70;99.90;;;;;;5035106;28;20045;-56
2022/09/27 04:28:23;;;;;;;7.35;1.33;;;9.60;99.90;;;;;;5024258;28;20046;-56
2022/09/27 04:30:50;;;;;;;8.32;1.90;;;9.60;99.90;;;;;;5031808;28;20449;-56
2022/09/27 04:33:46;;;;;;;6.40;1.52;;;9.60;99.90;;;;;;5014525;28;20046;-55
2022/09/27 04:36:30;;;;;;;9.25;1.80;;;9.60;99.90;;;;;;5034280;28;20132;-55
2022/09/27 04:39:01;;;;;;;6.47;1.08;;;9.60;99.90;;;;;;5034386;28;20069;-55
2022/09/27 04:41:28;;;;;;;5.28;0.95;;;9.60;99.90;;;;;;5034328;28;20132;-52
2022/09/27 04:43:54;;;;;;;9.50;1.63;;;9.60;99.90;;;;;;5036027;28;20037;-56
2022/09/27 04:46:25;;;;;;;7.70;1.95;;;9.60;99.90;;;;;;5034568;28;20060;-54
2022/09/27 04:48:52;;;;;;;7.20;1.48;;;9.60;99.90;;;;;;5032024;28;20041;-53
2022/09/27 04:51:18;;;;;;;10.75;1.75;;;9.60;99.90;;;;;;5036098;28;20041;-56
2022/09/27 04:53:46;;;;;;;10.63;1.60;;;9.70;99.90;;;;;;5033605;28;20117;-55
2022/09/27 04:56:13;;;;;;;13.35;1.70;;;9.70;99.90;;;;;;5034815;28;20046;-55
2022/09/27 04:58:40;;;;;;;12.23;1.67;;;9.80;99.90;;;;;;5034776;28;20046;-55
2022/09/27 05:01:07;;;;;;;9.90;2.10;;;9.80;99.90;;;;;;5029964;28;20489;-52
2022/09/27 05:03:51;;;;;;;8.93;1.92;;;9.80;99.90;;;;;;5031774;28;20057;-52
2022/09/27 05:06:17;;;;;;;6.57;1.58;;;9.80;99.90;;;;;;5034323;28;20046;-55
2022/09/27 05:08:44;;;;;;;7.57;1.30;;;9.80;99.90;;;;;;5032911;28;20120;-56
2022/09/27 05:11:22;;;;;;;8.73;1.80;;;9.80;99.90;;;;;;5034231;28;20045;-54
2022/09/27 05:14:21;;;;;;;6.50;1.50;;;9.80;99.90;;;;;;5032356;28;20045;-56
2022/09/27 05:17:06;;;;;;;7.88;1.55;;;9.80;99.90;;;;;;5027987;28;20119;-55
2022/09/27 05:19:47;;;;;;;10.52;1.77;;;9.80;99.90;;;;;;5030786;28;20056;-54
2022/09/27 05:22:19;;;;;;;10.35;1.70;;;9.80;99.90;;;;;;5032033;28;20041;-54
2022/09/27 05:24:46;;;;;;;10.85;2.13;;;9.80;99.90;;;;;;5031937;28;20508;-57
2022/09/27 05:27:15;;;;;;;10.82;2.05;;;9.80;99.90;;;;;;5032587;28;20043;-57
2022/09/27 05:29:41;;;;;;;4.38;1.23;;;9.80;99.90;;;;;;5034571;28;20064;-53
2022/09/27 05:32:17;;;;;;;6.68;1.80;;;9.80;99.90;;;;;;5031559;28;20045;-50
2022/09/27 05:34:49;;;;;;;6.82;1.40;;;9.90;99.90;;;;;;5034014;28;20049;-52
2022/09/27 05:37:16;;;;;;;5.07;1.35;;;9.90;99.90;;;;;;5032719;28;20416;-54
2022/09/27 05:39:43;;;;;;;10.32;1.58;;;10.00;99.90;;;;;;5032353;28;20460;-56
2022/09/27 05:42:14;;;;;;;7.40;1.85;;;10.00;99.90;;;;;;5030622;28;20042;-53
2022/09/27 05:44:45;;;;;;;9.15;1.65;;;10.00;99.90;;;;;;5013742;28;20046;-56
2022/09/27 05:47:14;;;;;;;6.60;1.33;;;10.00;99.90;;;;;;5013938;28;20045;-56
2022/09/27 05:49:40;;;;;;;4.97;1.30;;;10.10;99.90;;;;;;5023114;28;20038;-52
2022/09/27 05:52:09;;;;;;;8.38;1.60;;;10.10;99.90;;;;;;5031420;28;20099;-56
2022/09/27 05:54:42;;;;;;;9.27;1.58;;;10.10;99.90;;;;;;5033120;28;20065;-53
2022/09/27 05:57:09;;;;;;;11.68;1.67;;;10.10;99.90;;;;;;5033235;28;20116;-55
2022/09/27 05:59:43;;;;;;;8.10;1.60;;;10.10;99.90;;;;;;5032218;28;20393;-54
2022/09/27 06:02:18;;;;;;;7.78;1.80;;;10.10;99.90;;;;;;5032091;28;20477;-56
2022/09/27 06:05:04;;;;;;;6.22;1.40;;;10.20;99.90;;;;;;5033411;28;20056;-57
2022/09/27 06:07:33;;;;;;;9.48;2.08;;;10.10;99.90;;;;;;5033379;28;20052;-57
2022/09/27 06:10:02;;;;;;;11.48;1.88;;;10.20;99.90;;;;;;5031609;28;20034;-57
2022/09/27 06:12:31;;;;;;;8.25;1.50;;;10.20;99.90;;;;;;5030475;28;20140;-55
2022/09/27 06:14:59;;;;;;;5.85;1.55;;;10.20;99.90;;;;;;5031275;28;20055;-54
2022/09/27 06:17:32;;;;;;;5.88;1.30;;;10.20;99.90;;;;;;5028816;28;20485;-57
2022/09/27 06:20:07;;;;;;;7.72;1.60;;;10.20;99.90;;;;;;5030932;28;20575;-56
2022/09/27 06:22:35;;;;;;;8.88;1.50;;;10.30;99.90;;;;;;5031161;28;20072;-55
2022/09/27 06:25:03;;;;;;;8.75;1.27;;;10.30;99.90;;;;;;5032574;28;20064;-56
2022/09/27 06:27:34;;;;;;;3.47;1.05;;;10.30;99.90;;;;;;5030970;28;20042;-56
2022/09/27 06:30:07;;;;;;;5.57;1.60;;;10.30;99.90;;;;;;5029743;28;20144;-55
2022/09/27 06:33:03;;;;;;;6.28;1.38;;;10.40;99.90;;;;;;5018581;28;20050;-56
2022/09/27 06:35:35;;;;;;;6.50;1.42;;;10.40;99.90;;;;;;5030551;28;20076;-56
2022/09/27 06:38:01;;;;;;;6.72;1.48;;;10.40;99.90;;;;;;5032888;28;20132;-57
2022/09/27 06:40:28;;;;;;;7.25;1.40;;;10.40;99.90;;;;;;5028015;28;20072;-57
2022/09/27 06:43:28;;;;;;;7.38;1.40;;;10.40;99.90;;;;;;5030992;28;20045;-56
2022/09/27 06:46:17;;;;;;;7.07;1.33;;;10.40;99.90;;;;;;5041553;28;20073;-54
2022/09/27 06:49:06;;;;;;;7.63;1.38;;;10.40;99.90;;;;;;5031178;28;20049;-55
2022/09/27 06:51:33;;;;;;;5.43;1.00;;;10.40;99.90;;;;;;5029963;28;20115;-57
2022/09/27 06:54:00;;;;;;;4.43;1.08;;;10.50;99.90;;;;;;5030951;28;20053;-53
2022/09/27 06:56:26;;;;;;;5.60;1.08;;;10.50;99.90;;;;;;5030803;28;20061;-54
2022/09/27 07:01:42;;;;;;;5.32;1.35;;;10.50;99.90;;;;;;5025944;28;20073;-56
2022/09/27 07:04:27;;;;;;;5.95;1.27;;;10.60;99.90;;;;;;5026631;28;20431;-57
2022/09/27 07:06:56;;;;;;;6.28;1.42;;;10.60;99.90;;;;;;5028450;28;20045;-53
2022/09/27 07:09:27;;;;;;;7.63;1.80;;;10.60;99.90;;;;;;5030009;28;20120;-53
2022/09/27 07:11:54;;;;;;;5.28;1.10;;;10.60;99.80;;;;;;5029221;28;20076;-57
2022/09/27 07:14:21;;;;;;;6.63;1.20;;;10.70;99.80;;;;;;5010106;28;20038;-55
2022/09/27 07:16:48;;;;;;;10.00;1.42;;;10.70;99.80;;;;;;5022518;28;20057;-60
2022/09/27 07:19:17;;;;;;;9.48;1.75;;;10.70;99.80;;;;;;5022691;28;20080;-54
2022/09/27 07:21:45;;;;;;;6.35;1.27;;;10.70;99.60;;;;;;5027875;28;20172;-51
2022/09/27 07:24:11;;;;;;;5.90;1.20;;;10.80;99.70;;;;;;5037834;28;20061;-53
2022/09/27 07:26:40;;;;;;;5.82;1.27;;;10.80;99.60;;;;;;5045994;28;20481;-53
2022/09/27 07:29:09;;;;;;;7.80;2.10;;;10.90;99.60;;;;;;5032731;28;20060;-52
2022/09/27 07:31:37;;;;;;;7.30;1.70;;;10.90;99.50;;;;;;5025873;28;20049;-55
2022/09/27 07:34:05;;;;;;;5.57;1.50;;;10.90;99.70;;;;;;5011737;28;20062;-55
2022/09/27 07:36:32;;;;;;;5.40;1.27;;;11.00;99.40;;;;;;5031275;28;20058;-55
2022/09/27 07:38:59;;;;;;;5.63;1.30;;;11.00;99.40;;;;;;5030548;28;20074;-56
2022/09/27 07:41:27;;;;;;;6.22;1.65;;;11.00;99.40;;;;;;5028201;28;20337;-53
2022/09/27 07:43:53;;;;;;;5.68;1.20;;;11.00;99.20;;;;;;5029574;28;20068;-57
2022/09/27 07:46:22;;;;;;;7.90;1.65;;;11.10;99.40;;;;;;5028701;28;20068;-57
2022/09/27 07:49:22;;;;;;;6.25;1.40;;;11.10;99.40;;;;;;5043926;28;20049;-55
2022/09/27 07:51:48;;;;;;;8.38;1.30;;;11.20;99.80;;;;;;5026525;28;20060;-56
2022/09/27 07:54:47;;;;;;;6.57;1.60;;;11.30;99.70;;;;;;5038649;28;20045;-57
2022/09/27 07:57:37;;;;;;;5.18;1.40;;;11.40;99.70;;;;;;5036736;28;20077;-55
2022/09/27 08:00:04;;;;;;;7.72;1.70;;;11.50;99.60;;;;;;5026523;28;20493;-54
2022/09/27 08:02:38;;;;;;;8.98;1.30;;;11.60;99.50;;;;;;5028904;28;20041;-57
2022/09/27 08:05:05;;;;;;;6.97;2.42;;;11.70;99.40;;;;;;5028044;28;20382;-54
2022/09/27 08:07:34;;;;;;;11.27;1.50;;;11.70;99.20;;;;;;5032423;28;20056;-53
2022/09/27 08:10:00;;;;;;;8.65;2.00;;;11.80;99.80;;;;;;5033384;28;21357;-54
2022/09/27 08:12:28;;;;;;;8.82;1.50;;;11.80;99.90;;;;;;5029543;28;20555;-57
2022/09/27 08:14:57;;;;;;;7.85;1.63;;;11.80;99.70;;;;;;5030567;28;20088;-55
2022/09/27 08:17:24;;;;;;;11.13;2.05;;;11.90;99.30;;;;;;5034220;28;20128;-57
2022/09/27 08:20:06;;;;;;;7.15;1.45;;;12.00;99.40;;;;;;5037724;28;20033;-56
2022/09/27 08:22:56;;;;;;;10.40;2.08;;;12.00;99.10;;;;;;5054258;28;20044;-56
2022/09/27 08:25:32;;;;;;;11.48;2.78;;;12.10;99.20;;;;;;5054323;28;20499;-55
2022/09/27 08:28:37;;;;;;;9.13;1.77;;;12.10;99.20;;;;;;5036457;28;20081;-56
2022/09/27 08:31:15;;;;;;;10.57;2.17;;;12.20;98.90;;;;;;5022229;28;20072;-58
2022/09/27 08:33:42;;;;;;;10.02;2.10;;;12.20;99.20;;;;;;5022648;28;20049;-55
2022/09/27 08:36:09;;;;;;;5.93;1.90;;;12.30;98.90;;;;;;5031771;28;20132;-58
2022/09/27 08:38:36;;;;;;;9.82;2.20;;;12.30;98.90;;;;;;5034843;28;20049;-56
2022/09/27 08:41:03;;;;;;;10.98;2.38;;;12.40;98.60;;;;;;5039310;28;20064;-55
2022/09/27 08:43:30;;;;;;;15.85;3.38;;;12.40;98.50;;;;;;5040486;28;20040;-54
2022/09/27 08:45:57;;;;;;;13.73;2.92;;;12.40;98.60;;;;;;5037845;28;20499;-57
2022/09/27 08:48:24;;;;;;;11.13;2.45;;;12.50;98.50;;;;;;5023936;28;20041;-55
2022/09/27 08:50:51;;;;;;;12.27;2.70;;;12.60;98.70;;;;;;5040844;28;20045;-57
2022/09/27 08:53:20;;;;;;;12.25;2.58;;;12.70;98.50;;;;;;5033017;28;20045;-55
2022/09/27 08:55:49;;;;;;;11.70;3.35;;;12.70;98.20;;;;;;5033590;28;20049;-56
2022/09/27 08:58:20;;;;;;;16.80;3.38;;;12.90;98.20;;;;;;5034814;28;20404;-58
2022/09/27 09:00:47;;;;;;;14.93;3.35;;;12.90;97.60;;;;;;5017887;28;20132;-58
2022/09/27 09:03:14;;;;;;;12.75;3.00;;;12.90;98.00;;;;;;5041974;28;20141;-54
2022/09/27 09:05:40;;;;;;;13.98;3.50;;;12.90;98.00;;;;;;5032660;28;20050;-58
2022/09/27 09:08:08;;;;;;;10.85;2.45;;;13.00;98.00;;;;;;5046364;28;20055;-54
2022/09/27 09:13:21;;;;;;;10.45;2.83;;;13.10;97.90;;;;;;5053594;28;20150;-55
2022/09/27 09:15:57;;;;;;;12.77;3.50;;;13.20;97.40;;;;;;5031571;28;20060;-56
2022/09/27 09:18:28;;;;;;;18.42;4.63;;;13.30;97.50;;;;;;5033253;28;20041;-56
2022/09/27 09:21:10;;;;;;;11.80;3.03;;;13.30;97.30;;;;;;5040759;28;20451;-56
2022/09/27 09:23:36;;;;;;;10.45;2.25;;;13.30;97.00;;;;;;5042337;28;20042;-53
2022/09/27 09:26:04;;;;;;;12.73;2.72;;;13.30;97.10;;;;;;5037171;28;20036;-56
2022/09/27 09:28:31;;;;;;;11.70;2.78;;;13.40;97.30;;;;;;5032675;28;20046;-56
2022/09/27 09:30:57;;;;;;;21.95;14.30;;;13.40;97.10;;;;;;5046771;28;20052;-55
2022/09/27 09:33:25;;;;;;;13.27;3.90;;;13.40;97.10;;;;;;5034217;28;20041;-58
2022/09/27 09:35:54;;;;;;;9.80;2.85;;;13.40;97.10;;;;;;5033266;28;20095;-55
2022/09/27 09:38:20;;;;;;;13.50;3.35;;;13.50;97.20;;;;;;5030926;28;20385;-57
2022/09/27 09:40:48;;;;;;;10.50;2.90;;;13.60;97.00;;;;;;5033906;28;20085;-57
2022/09/27 09:43:16;;;;;;;17.83;2.90;;;13.60;97.10;;;;;;5046372;28;20132;-58
2022/09/27 09:45:43;;;;;;;16.63;6.07;;;13.60;96.90;;;;;;5050732;28;20455;-56
2022/09/27 09:48:10;;;;;;;17.33;5.90;;;13.70;97.00;;;;;;5031631;28;20076;-54
2022/09/27 09:50:37;;;;;;;13.82;2.78;;;13.60;96.70;;;;;;5031397;28;20037;-58
2022/09/27 09:53:06;;;;;;;15.10;3.35;;;13.60;96.80;;;;;;5028931;28;20476;-58
2022/09/27 09:55:33;;;;;;;12.10;2.72;;;13.60;96.70;;;;;;5031469;28;20137;-56
2022/09/27 09:58:00;;;;;;;13.30;2.58;;;13.50;97.10;;;;;;5053741;28;20045;-54
2022/09/27 10:00:33;;;;;;;11.50;2.50;;;13.50;97.00;;;;;;5043452;28;20050;-57
2022/09/27 10:03:00;;;;;;;15.00;2.75;;;13.60;97.00;;;;;;5032416;28;20045;-57
2022/09/27 10:05:27;;;;;;;11.07;2.33;;;13.60;96.90;;;;;;5033505;28;20071;-54
2022/09/27 10:08:03;;;;;;;11.57;2.55;;;13.60;97.00;;;;;;5030327;28;20042;-56
2022/09/27 10:10:30;;;;;;;10.65;2.75;;;13.50;97.00;;;;;;5040227;28;20511;-58
2022/09/27 10:13:16;;;;;;;10.52;2.55;;;13.50;97.30;;;;;;5046205;28;20135;-55
2022/09/27 10:15:43;;;;;;;77.80;6.00;;;13.50;97.20;;;;;;5035088;28;20068;-56
2022/09/27 10:18:10;;;;;;;12.82;2.80;;;13.50;97.20;;;;;;5032502;28;20488;-56
2022/09/27 10:20:37;;;;;;;13.00;2.90;;;13.50;97.30;;;;;;5032107;28;20400;-57
2022/09/27 10:23:05;;;;;;;13.32;2.78;;;13.60;97.20;;;;;;5019992;28;20034;-56
2022/09/27 10:25:52;;;;;;;15.27;2.67;;;13.60;97.20;;;;;;5026003;28;20388;-54
2022/09/27 10:28:33;;;;;;;12.60;2.95;;;13.60;97.10;;;;;;5031344;28;20045;-56
2022/09/27 10:31:00;;;;;;;13.02;2.47;;;13.70;98.10;;;;;;5032579;28;20072;-56
2022/09/27 10:33:31;;;;;;;9.55;2.42;;;13.70;98.30;;;;;;5039816;28;20076;-53
2022/09/27 10:36:03;;;;;;;10.57;2.70;;;13.80;98.20;;;;;;5038159;28;20456;-54
2022/09/27 10:38:35;;;;;;;15.00;2.83;;;13.80;97.80;;;;;;5041564;28;20056;-51
2022/09/27 10:41:15;;;;;;;10.43;2.60;;;13.80;97.70;;;;;;5039192;28;20050;-57
2022/09/27 10:43:42;;;;;;;13.68;2.70;;;13.90;97.00;;;;;;5030979;28;20054;-57
2022/09/27 10:46:34;;;;;;;10.60;2.35;;;14.00;96.70;;;;;;5034917;28;20073;-55
2022/09/27 10:49:20;;;;;;;12.13;2.45;;;14.20;96.70;;;;;;5050466;28;20130;-54
2022/09/27 10:51:48;;;;;;;14.70;2.65;;;14.20;95.80;;;;;;5038139;28;20535;-55
2022/09/27 10:54:15;;;;;;;12.00;2.50;;;14.30;95.20;;;;;;5034349;28;20052;-56
2022/09/27 10:56:41;;;;;;;11.48;2.47;;;14.30;95.40;;;;;;5032089;28;20068;-54
2022/09/27 10:59:08;;;;;;;11.60;2.50;;;14.30;95.50;;;;;;5039954;28;20374;-57
2022/09/27 11:01:36;;;;;;;13.55;3.05;;;14.30;95.20;;;;;;5041171;28;21632;-56
2022/09/27 11:04:13;;;;;;;13.30;2.88;;;14.30;95.90;;;;;;5037690;28;20091;-57
2022/09/27 11:06:41;;;;;;;14.52;3.08;;;14.30;95.20;;;;;;5034984;28;20049;-57
2022/09/27 11:09:09;;;;;;;11.60;3.05;;;14.30;95.60;;;;;;5033252;28;20416;-56
2022/09/27 11:11:36;;;;;;;13.55;2.70;;;14.20;95.90;;;;;;5032857;28;20045;-58
2022/09/27 11:14:03;;;;;;;14.57;2.60;;;14.30;96.00;;;;;;5033289;28;20079;-57
2022/09/27 11:16:33;;;;;;;15.88;2.97;;;14.30;95.80;;;;;;5028676;28;20626;-56
2022/09/27 11:19:01;;;;;;;11.27;2.28;;;14.30;95.90;;;;;;5030351;28;20042;-55
2022/09/27 11:21:30;;;;;;;11.27;2.70;;;14.30;95.90;;;;;;5031518;28;20485;-53
2022/09/27 11:23:57;;;;;;;12.95;2.88;;;14.20;95.70;;;;;;5039880;28;20136;-57
2022/09/27 11:26:24;;;;;;;12.55;2.67;;;14.20;96.20;;;;;;5046897;28;20044;-58
2022/09/27 11:28:52;;;;;;;11.52;2.33;;;14.20;96.10;;;;;;5033054;28;20138;-55
2022/09/27 11:31:39;;;;;;;10.48;2.28;;;14.00;97.30;;;;;;5032530;28;20511;-56
2022/09/27 11:34:07;;;;;;;11.07;2.63;;;13.90;98.00;;;;;;5034950;28;20058;-59
2022/09/27 11:36:34;;;;;;;14.52;2.60;;;13.70;98.70;;;;;;5034009;28;20076;-53
2022/09/27 11:39:02;;;;;;;14.70;3.88;;;13.50;99.90;;;;;;5034711;28;20045;-55
2022/09/27 11:41:33;;;;;;;16.08;3.13;;;13.30;99.90;;;;;;5030785;28;20083;-53
2022/09/27 11:44:01;;;;;;;16.58;3.08;;;12.90;99.90;;;;;;5040672;28;20141;-53
2022/09/27 11:46:29;;;;;;;14.65;3.55;;;12.50;99.90;;;;;;5040058;28;20045;-55
2022/09/27 11:49:07;;;;;;;12.57;2.92;;;12.20;99.90;;;;;;5034609;28;20485;-51
2022/09/27 11:51:35;;;;;;;9.23;2.60;;;12.00;99.90;;;;;;5031010;28;20037;-56
2022/09/27 11:54:02;;;;;;;10.98;2.20;;;11.90;99.90;;;;;;5035127;28;20061;-55
2022/09/27 11:56:30;;;;;;;15.50;3.20;;;12.00;99.90;;;;;;5040445;28;20133;-54
2022/09/27 11:58:57;;;;;;;8.85;2.63;;;12.00;99.90;;;;;;5034398;28;20607;-56
2022/09/27 12:01:24;;;;;;;15.70;2.83;;;12.20;99.90;;;;;;5034178;28;20072;-54
2022/09/27 12:03:50;;;;;;;9.38;2.15;;;12.20;99.90;;;;;;5038640;28;20064;-55
2022/09/27 12:06:20;;;;;;;11.68;2.20;;;12.20;99.90;;;;;;5036840;28;20068;-55
2022/09/27 12:08:47;;;;;;;6.18;1.48;;;12.20;99.90;;;;;;5037677;28;20045;-57
2022/09/27 12:11:14;;;;;;;5.72;1.20;;;12.10;99.90;;;;;;5031422;28;20591;-55
2022/09/27 12:13:41;;;;;;;8.60;1.60;;;12.10;99.90;;;;;;5038952;28;20038;-57
2022/09/27 12:16:07;;;;;;;5.45;1.38;;;12.10;99.90;;;;;;5029572;28;20046;-55
2022/09/27 12:18:37;;;;;;;6.45;1.60;;;12.00;99.90;;;;;;5034466;28;20030;-58
2022/09/27 12:21:13;;;;;;;5.80;1.02;;;12.10;99.90;;;;;;5042169;28;20226;-56
2022/09/27 12:23:40;;;;;;;6.07;1.40;;;12.20;99.90;;;;;;5036457;28;20048;-56
2022/09/27 12:26:15;;;;;;;7.85;1.80;;;12.30;99.90;;;;;;5034194;28;20041;-56
2022/09/27 12:28:42;;;;;;;5.18;1.42;;;12.40;99.90;;;;;;5034280;28;20088;-55
2022/09/27 12:31:09;;;;;;;6.35;1.40;;;12.40;99.90;;;;;;5033784;28;20392;-57
2022/09/27 12:33:54;;;;;;;4.88;1.25;;;12.40;99.90;;;;;;5032030;28;20056;-55
2022/09/27 12:36:21;;;;;;;4.43;1.20;;;12.50;99.90;;;;;;5039267;28;20144;-56
2022/09/27 12:38:48;;;;;;;7.20;1.60;;;12.50;99.90;;;;;;5033250;28;20072;-56
2022/09/27 12:41:15;;;;;;;7.35;1.60;;;12.40;99.90;;;;;;5032190;28;20057;-54
2022/09/27 12:43:56;;;;;;;5.90;1.60;;;12.40;99.90;;;;;;5051239;28;20049;-55
2022/09/27 12:46:32;;;;;;;5.03;1.45;;;12.30;99.90;;;;;;5013861;28;20125;-55
2022/09/27 12:49:03;;;;;;;5.78;1.38;;;12.40;99.90;;;;;;5016825;28;20049;-54
2022/09/27 12:51:32;;;;;;;5.95;1.60;;;12.50;99.90;;;;;;5034684;28;20041;-55
2022/09/27 12:54:04;;;;;;;6.07;1.42;;;12.60;99.90;;;;;;5032885;28;20041;-53
2022/09/27 12:56:30;;;;;;;4.82;1.20;;;12.60;99.90;;;;;;5030293;28;20053;-54
2022/09/27 16:10:37;;;;;;;7.03;2.10;;;12.40;99.90;;;;;;3389926;26;20479;-55
2022/09/27 16:13:04;;;;;;;8.13;2.05;;;12.40;99.90;;;;;;5052812;28;20099;-56
2022/09/27 16:15:31;;;;;;;6.35;2.60;;;12.40;99.90;;;;;;5035747;28;20045;-55
2022/09/27 16:17:58;;;;;;;11.77;1.70;;;12.50;99.90;;;;;;5033156;28;20128;-53
2022/09/27 16:20:26;;;;;;;5.57;1.73;;;12.50;99.90;;;;;;5034260;28;20493;-52